Riverdale, Georgia
Current Conditions -  °F | °C
As of 6:52 PM on Sunday 23 Nov 2014 (Local Time) from KATL Reporting Station
Overcast Overcast  
Wind Chill: 61°   Ceiling: 1600
Heat Index: 61°   Visibility: 10mi
Dew Point: 59°   Wind: 13mph
Humidity: 93%   Direction: 180°S
Pressure: 29.7"   Gusts: 18mph
Location:  33.57°N, 84.41°W
Report Text: KATL 232352Z 18011G16KT 10SM FEW011 BKN016 OVC032 16/15 A2970 RMK AO2 SLP056 60077 T01610150 10161 20111 55007 $
Loading
Personal Weather Stations






























Interactive Weather Map New forecast layout! Learn more

10-Day Weather Forecast

Advertisements
Track Severe Weather on mobile